sim
Sign-in with your pilot id or email,
or register
Callsign
Passwort

Schedule Details

Flight Number: OEO7716
Departure: Vienna International Airport (LOWW) at 18:40
Arrival: Mumbai Chhatrapati Shivaji International Airport (VABB) at 02:10

Weather Information
Getting current METAR information for LOWW 191850Z 28016KT 9999 FEW060TCU BKN085 26/14 Q1018 BECMG 31006KT
Getting current METAR information for VABB 191830Z 27004KT 3500 HZ FEW020 SCT025 28/25 Q1010 NOSIG

Schedule Frequency

Route Map